Time;durP1;ratioP1;P1;durP2;ratioP2;P2;SDS_P1;SDS_P2;PMS_P1;PMS_P2;Temp;Humidity;BMP_temperature;BMP_pressure;BME280_temperature;BME280_humidity;BME280_pressure;Samples;Min_cycle;Max_cycle;Signal;HPM_P1;HPM_P2
2022/08/11 00:00:01;;;;;;;6.18;5.60;;;16.80;99.90;;;;;;4980653;28;92878;-31
2022/08/11 00:02:34;;;;;;;5.47;5.07;;;16.80;99.90;;;;;;4980975;28;90210;-33
2022/08/11 00:05:13;;;;;;;7.53;6.38;;;16.80;99.90;;;;;;4981570;28;88989;-33
2022/08/11 00:07:51;;;;;;;6.10;4.85;;;16.70;99.90;;;;;;4980970;28;91523;-31
2022/08/11 00:10:19;;;;;;;7.73;5.87;;;16.70;99.90;;;;;;4980469;28;89808;-34
2022/08/11 00:12:51;;;;;;;6.88;6.18;;;16.70;99.90;;;;;;4980869;28;89523;-33
2022/08/11 00:15:17;;;;;;;7.18;5.97;;;16.60;99.90;;;;;;4981153;28;88961;-33
2022/08/11 00:17:44;;;;;;;6.43;5.82;;;16.60;99.90;;;;;;4980908;28;90904;-31
2022/08/11 00:20:13;;;;;;;4.85;4.43;;;16.60;99.90;;;;;;4980866;28;89986;-33
2022/08/11 00:22:41;;;;;;;6.03;5.43;;;16.60;99.90;;;;;;5030516;22;89494;-31
2022/08/11 00:25:19;;;;;;;6.97;6.30;;;16.50;99.90;;;;;;5001342;28;89595;-32
2022/08/11 00:27:46;;;;;;;11.13;5.82;;;16.60;99.90;;;;;;5000820;28;90311;-34
2022/08/11 00:30:14;;;;;;;6.25;5.38;;;16.50;99.90;;;;;;5000764;28;89547;-31
2022/08/11 00:32:51;;;;;;;8.52;5.88;;;16.50;99.90;;;;;;5000341;28;88531;-31
2022/08/11 00:35:22;;;;;;;8.38;6.88;;;16.50;99.90;;;;;;5000949;28;89042;-34
2022/08/11 00:37:51;;;;;;;6.95;6.25;;;16.50;99.90;;;;;;5000649;28;90116;-34
2022/08/11 00:41:03;;;;;;;7.10;6.47;;;16.50;99.90;;;;;;5001101;28;89684;-33
2022/08/11 00:43:41;;;;;;;6.65;6.05;;;16.50;99.90;;;;;;4996823;28;90547;-31
2022/08/11 00:46:17;;;;;;;10.27;6.97;;;16.50;99.90;;;;;;5000397;28;88943;-34
2022/08/11 00:49:28;;;;;;;7.97;6.25;;;16.40;99.90;;;;;;5000456;28;91013;-32
2022/08/11 00:52:27;;;;;;;6.03;5.53;;;16.40;99.90;;;;;;5000116;28;90592;-33
2022/08/11 00:55:11;;;;;;;7.95;6.43;;;16.40;99.90;;;;;;5000779;28;90658;-34
2022/08/11 00:58:09;;;;;;;7.53;6.55;;;16.40;99.90;;;;;;4999556;28;88929;-33
2022/08/11 01:00:53;;;;;;;;;;;16.40;99.90;;;;;;5000007;28;90728;-33
2022/08/11 01:03:36;;;;;;;6.68;6.03;;;16.30;99.90;;;;;;5002110;28;89656;-32
2022/08/11 01:06:31;;;;;;;9.48;7.43;;;16.30;99.90;;;;;;4999807;28;89516;-33
2022/08/11 01:09:26;;;;;;;8.48;7.68;;;16.20;99.90;;;;;;5000699;28;88684;-33
2022/08/11 01:12:32;;;;;;;6.80;6.13;;;16.20;99.90;;;;;;5001009;28;90359;-31
2022/08/11 01:15:32;;;;;;;8.30;7.38;;;16.10;99.90;;;;;;4988513;28;89744;-33
2022/08/11 01:18:19;;;;;;;8.45;7.63;;;16.10;99.90;;;;;;5000167;28;89984;-33
2022/08/11 01:20:57;;;;;;;18.33;8.60;;;16.00;99.90;;;;;;4999860;28;89914;-32
2022/08/11 01:23:57;;;;;;;9.98;8.48;;;16.00;99.90;;;;;;4985968;28;91998;-31
2022/08/11 01:26:42;;;;;;;7.43;6.72;;;16.00;99.90;;;;;;4999330;28;90176;-33
2022/08/11 01:29:53;;;;;;;7.20;6.50;;;15.90;99.90;;;;;;5000423;28;91178;-32
2022/08/11 01:32:48;;;;;;;9.25;8.35;;;15.90;99.90;;;;;;5000189;28;89429;-32
2022/08/11 01:35:31;;;;;;;15.60;9.20;;;15.90;99.90;;;;;;4999426;28;90036;-31
2022/08/11 01:38:15;;;;;;;9.43;7.13;;;15.90;99.90;;;;;;4999677;28;89697;-32
2022/08/11 01:41:11;;;;;;;12.57;9.07;;;15.80;99.90;;;;;;4985889;28;89589;-33
2022/08/11 01:46:55;;;;;;;9.43;8.60;;;15.80;99.90;;;;;;4999366;28;90226;-35
2022/08/11 01:49:44;;;;;;;9.25;8.23;;;15.80;99.90;;;;;;4998912;28;90056;-33
2022/08/11 01:52:29;;;;;;;8.48;7.78;;;15.80;99.90;;;;;;4999211;28;91422;-30
2022/08/11 01:55:23;;;;;;;10.40;9.38;;;15.80;99.90;;;;;;4998397;28;87657;-32
2022/08/11 01:58:07;;;;;;;9.80;8.90;;;15.80;99.90;;;;;;4985956;28;90127;-34
2022/08/11 02:00:46;;;;;;;9.52;8.50;;;15.70;99.90;;;;;;4998932;28;90044;-35
2022/08/11 02:03:25;;;;;;;11.27;9.60;;;15.70;99.90;;;;;;4999391;28;89554;-31
2022/08/11 02:06:00;;;;;;;11.02;9.88;;;15.70;99.90;;;;;;4999450;28;89608;-31
2022/08/11 02:08:34;;;;;;;10.80;9.70;;;15.70;99.90;;;;;;4999552;28;90414;-33
2022/08/11 02:11:30;;;;;;;10.85;9.77;;;15.70;99.90;;;;;;4998260;28;89649;-35
2022/08/11 02:14:29;;;;;;;9.95;8.82;;;15.70;99.90;;;;;;4999336;28;88517;-33
2022/08/11 02:17:09;;;;;;;10.63;9.52;;;15.70;99.90;;;;;;4989352;28;89220;-31
2022/08/11 02:26:02;;;;;;;13.00;11.43;;;15.60;99.90;;;;;;4998594;28;88929;-33
2022/08/11 02:28:42;;;;;;;14.80;10.90;;;15.60;99.90;;;;;;4998267;28;89241;-35
2022/08/11 02:34:36;;;;;;;12.50;11.25;;;15.60;99.90;;;;;;4998448;28;91708;-37
2022/08/11 02:37:23;;;;;;;11.35;9.90;;;15.50;99.90;;;;;;4998063;28;89248;-32
2022/08/11 02:39:52;;;;;;;12.60;10.40;;;15.40;99.90;;;;;;4999394;28;88351;-35
2022/08/11 02:42:47;;;;;;;16.42;11.68;;;15.30;99.90;;;;;;4998860;28;90923;-31
2022/08/11 02:46:01;;;;;;;13.73;12.25;;;15.30;99.90;;;;;;4997858;28;90774;-34
2022/08/11 02:51:43;;;;;;;13.38;12.07;;;15.20;99.90;;;;;;4996458;28;87590;-33
2022/08/11 02:54:46;;;;;;;13.55;12.23;;;15.20;99.90;;;;;;4998030;28;89336;-35
2022/08/11 02:57:41;;;;;;;14.73;13.18;;;15.20;99.90;;;;;;4988762;28;88866;-31
2022/08/11 03:00:15;;;;;;;13.57;12.18;;;15.20;99.90;;;;;;4963252;28;89596;-31
2022/08/11 03:03:22;;;;;;;17.98;14.38;;;15.20;99.90;;;;;;4985364;28;89004;-32
2022/08/11 03:05:51;;;;;;;14.70;12.07;;;15.20;99.90;;;;;;4998211;28;90339;-30
2022/08/11 03:08:52;;;;;;;13.95;12.65;;;15.20;99.90;;;;;;4998168;28;89868;-31
2022/08/11 03:17:59;;;;;;;16.98;13.00;;;15.20;99.90;;;;;;4998114;28;89228;-30
2022/08/11 03:20:52;;;;;;;15.25;13.52;;;15.20;99.90;;;;;;4998097;28;89642;-35
2022/08/11 03:23:43;;;;;;;14.27;12.88;;;15.20;99.90;;;;;;4989048;28;89591;-31
2022/08/11 03:26:24;;;;;;;15.48;13.45;;;15.20;99.90;;;;;;5000857;28;89056;-34
2022/08/11 03:29:10;;;;;;;15.02;13.45;;;15.20;99.90;;;;;;5001151;28;90378;-32
2022/08/11 03:32:06;;;;;;;16.35;12.98;;;15.20;99.90;;;;;;5000789;28;89542;-30
2022/08/11 03:34:35;;;;;;;16.65;13.82;;;15.20;99.90;;;;;;5000760;28;89910;-31
2022/08/11 03:37:50;;;;;;;15.13;13.63;;;15.20;99.90;;;;;;5001468;28;88816;-32
2022/08/11 03:43:53;;;;;;;16.50;14.68;;;15.10;99.90;;;;;;5000307;28;90825;-32
2022/08/11 03:46:35;;;;;;;17.00;14.68;;;15.20;99.90;;;;;;5000612;28;90057;-32
2022/08/11 03:49:24;;;;;;;19.65;15.95;;;15.20;99.90;;;;;;5000992;28;88694;-31
2022/08/11 03:51:53;;;;;;;;;;;15.20;99.90;;;;;;5001666;28;90098;-30
2022/08/11 03:54:38;;;;;;;21.65;14.77;;;15.10;99.90;;;;;;5002945;28;89301;-33
2022/08/11 03:57:03;;;;;;;17.05;15.32;;;15.10;99.90;;;;;;5000934;28;89640;-34
2022/08/11 03:59:50;;;;;;;18.80;14.50;;;15.10;99.90;;;;;;5000208;28;90054;-35
2022/08/11 04:02:28;;;;;;;14.10;12.70;;;15.00;99.90;;;;;;5000209;28;90381;-36
2022/08/11 04:05:02;;;;;;;17.00;15.20;;;14.90;99.90;;;;;;5001031;28;90181;-34
2022/08/11 04:08:10;;;;;;;11.98;10.73;;;14.90;99.90;;;;;;4986698;28;90700;-34
2022/08/11 04:10:59;;;;;;;13.77;12.45;;;14.80;99.90;;;;;;5000517;28;90095;-32
2022/08/11 04:15:58;;;;;;;17.58;15.27;;;14.80;99.90;;;;;;5000524;28;90143;-33
2022/08/11 04:17:26;;;;;;;17.00;15.23;;;14.80;99.90;;;;;;4992947;28;91124;-34
2022/08/11 04:20:21;;;;;;;17.97;15.77;;;14.80;99.90;;;;;;4991270;28;89890;-34
2022/08/11 04:23:11;;;;;;;20.00;16.48;;;14.80;99.90;;;;;;4987289;28;89259;-34
2022/08/11 04:25:48;;;;;;;19.42;15.32;;;14.80;99.90;;;;;;5000852;28;90188;-34
2022/08/11 04:28:20;;;;;;;18.33;16.40;;;14.80;99.90;;;;;;5000497;28;89739;-32
2022/08/11 04:30:51;;;;;;;19.67;15.32;;;14.80;99.90;;;;;;5000302;28;89846;-33
2022/08/11 04:33:33;;;;;;;17.58;15.80;;;14.80;99.90;;;;;;5004990;28;88150;-30
2022/08/11 04:36:17;;;;;;;16.27;14.75;;;14.90;99.90;;;;;;4998607;28;90506;-31
2022/08/11 04:39:21;;;;;;;17.23;15.43;;;14.90;99.90;;;;;;5003637;28;90662;-33
2022/08/11 04:45:34;;;;;;;18.55;16.70;;;15.00;99.90;;;;;;5005160;28;87923;-32
2022/08/11 05:07:07;;;;;;;14.88;13.43;;;15.70;99.90;;;;;;5013715;28;89674;-32
2022/08/11 05:09:38;;;;;;;15.60;14.05;;;15.90;99.90;;;;;;5013114;28;88575;-33
2022/08/11 05:12:35;;;;;;;14.68;13.20;;;16.10;99.90;;;;;;5013698;28;89978;-32
2022/08/11 05:35:48;;;;;;;15.23;13.73;;;16.50;99.90;;;;;;5013090;28;90275;-32
2022/08/11 05:57:56;;;;;;;12.38;11.18;;;16.90;99.90;;;;;;4998891;28;90292;-33
2022/08/11 06:00:23;;;;;;;13.60;12.23;;;17.00;99.90;;;;;;4998880;28;90247;-34
2022/08/11 06:02:59;;;;;;;13.85;12.50;;;17.00;99.90;;;;;;4998585;28;89702;-31
2022/08/11 06:05:35;;;;;;;12.32;11.20;;;17.10;99.90;;;;;;4997763;28;90148;-33
2022/08/11 06:08:04;;;;;;;12.38;11.25;;;17.20;99.90;;;;;;4993186;28;89114;-31
2022/08/11 06:10:32;;;;;;;;;;;17.30;99.90;;;;;;5005596;28;89889;-34
2022/08/11 06:12:59;;;;;;;;;;;17.30;99.90;;;;;;5004001;28;89664;-33
2022/08/11 06:15:26;;;;;;;11.80;10.63;;;17.40;99.90;;;;;;4995535;28;88997;-31
2022/08/11 06:17:54;;;;;;;11.48;10.45;;;17.40;99.90;;;;;;4995050;28;90325;-30
2022/08/11 06:20:22;;;;;;;10.43;9.52;;;17.50;99.90;;;;;;4996265;28;89941;-32
2022/08/11 06:22:56;;;;;;;11.23;10.23;;;17.50;99.90;;;;;;4997017;28;89508;-31
2022/08/11 06:25:28;;;;;;;12.48;9.90;;;17.60;99.90;;;;;;4992238;28;88646;-34
2022/08/11 06:27:55;;;;;;;13.55;12.23;;;17.70;99.90;;;;;;4990084;28;90009;-31
2022/08/11 06:30:33;;;;;;;15.90;10.35;;;17.80;99.90;;;;;;4994690;28;90654;-30
2022/08/11 06:33:03;;;;;;;11.32;10.30;;;17.90;99.90;;;;;;4995426;28;91804;-31
2022/08/11 06:35:44;;;;;;;12.68;11.45;;;18.00;99.90;;;;;;4995212;28;88290;-31
2022/08/11 06:38:35;;;;;;;11.90;10.05;;;18.10;99.90;;;;;;5001835;28;90061;-33
2022/08/11 06:41:30;;;;;;;11.88;10.35;;;18.20;99.90;;;;;;5001352;28;90339;-33
2022/08/11 06:44:09;;;;;;;11.98;10.93;;;18.40;99.90;;;;;;4998235;28;89197;-31
2022/08/11 06:46:39;;;;;;;24.20;11.77;;;18.50;99.90;;;;;;5009099;28;87616;-30
2022/08/11 06:52:06;;;;;;;11.88;10.60;;;18.80;99.90;;;;;;5008758;28;89732;-30
2022/08/11 06:54:35;;;;;;;12.82;11.40;;;19.10;99.90;;;;;;5006876;28;89667;-31
2022/08/11 07:02:41;;;;;;;12.57;10.13;;;19.70;99.90;;;;;;5004858;28;90294;-31
2022/08/11 07:05:19;;;;;;;11.00;10.07;;;20.00;99.90;;;;;;5009700;28;90114;-32
2022/08/11 07:17:20;;;;;;;12.00;9.15;;;21.00;99.90;;;;;;4998844;28;89769;-31
2022/08/11 07:31:40;;;;;;;10.30;8.40;;;22.20;99.90;;;;;;4999544;28;89154;-36
2022/08/11 07:34:26;;;;;;;8.57;7.78;;;22.50;99.90;;;;;;4999007;28;90211;-32
2022/08/11 07:37:02;;;;;;;9.75;8.75;;;22.70;99.90;;;;;;4999134;28;90029;-32
2022/08/11 07:39:32;;;;;;;11.25;8.50;;;22.80;99.90;;;;;;4999520;28;89985;-34
2022/08/11 07:42:03;;;;;;;10.57;8.18;;;23.00;99.90;;;;;;4999515;28;89315;-34
2022/08/11 07:44:30;;;;;;;6.43;5.93;;;23.10;99.90;;;;;;4999487;28;90445;-33
2022/08/11 07:52:32;;;;;;;7.70;6.85;;;23.70;99.90;;;;;;4998900;28;88495;-33
2022/08/11 07:55:13;;;;;;;7.50;6.22;;;23.90;99.90;;;;;;4999853;28;89326;-32
2022/08/11 08:19:46;;;;;;;4.38;3.97;;;25.10;99.90;;;;;;5000307;28;92063;-32
2022/08/11 08:22:17;;;;;;;7.30;5.28;;;25.30;99.90;;;;;;4999565;28;90859;-33
2022/08/11 08:24:43;;;;;;;5.18;4.78;;;25.40;99.90;;;;;;5000775;28;89526;-32
2022/08/11 08:27:12;;;;;;;4.75;4.35;;;25.60;99.90;;;;;;5000652;28;90455;-32
2022/08/11 08:32:24;;;;;;;6.28;3.75;;;26.00;99.90;;;;;;4999981;28;89740;-33
2022/08/11 08:34:51;;;;;;;6.07;3.67;;;26.20;99.90;;;;;;5000858;28;88979;-34
2022/08/11 08:37:19;;;;;;;3.53;3.20;;;26.20;99.90;;;;;;5000691;28;91269;-34
2022/08/11 08:39:46;;;;;;;3.72;2.97;;;26.30;99.90;;;;;;5001341;28;89543;-33
2022/08/11 08:42:16;;;;;;;3.00;2.70;;;26.50;99.90;;;;;;5000315;28;89715;-35
2022/08/11 08:44:46;;;;;;;4.05;3.00;;;26.70;99.90;;;;;;5000052;28;89730;-32
2022/08/11 08:47:17;;;;;;;6.40;3.22;;;26.80;99.90;;;;;;5000615;28;90621;-35
2022/08/11 08:49:49;;;;;;;6.68;2.40;;;26.90;99.90;;;;;;5000084;28;90005;-33
2022/08/11 08:52:21;;;;;;;5.82;2.22;;;27.00;99.90;;;;;;5000475;28;90131;-34
2022/08/11 08:54:54;;;;;;;2.47;2.22;;;27.40;99.90;;;;;;5000793;28;88485;-33
2022/08/11 08:57:26;;;;;;;4.55;2.13;;;27.50;83.10;;;;;;4999648;28;91155;-31
2022/08/11 08:59:52;;;;;;;11.25;2.30;;;27.50;76.30;;;;;;5000984;28;88687;-32
2022/08/11 09:02:22;;;;;;;2.45;2.25;;;27.60;77.50;;;;;;4999668;28;89174;-35
2022/08/11 09:04:48;;;;;;;2.50;1.80;;;27.70;71.90;;;;;;5000791;28;89001;-33
2022/08/11 09:07:21;;;;;;;1.80;1.70;;;27.80;73.60;;;;;;4999820;28;91002;-32
2022/08/11 09:09:53;;;;;;;3.15;2.10;;;28.10;70.60;;;;;;4999868;28;91510;-34
2022/08/11 09:12:24;;;;;;;4.65;2.35;;;28.20;70.00;;;;;;5000142;28;90386;-34
2022/08/11 09:15:02;;;;;;;2.72;2.45;;;28.20;66.10;;;;;;5000737;28;88401;-34
2022/08/11 09:17:49;;;;;;;2.72;2.53;;;28.30;65.00;;;;;;4999692;28;92220;-32
2022/08/11 09:20:18;;;;;;;2.97;2.38;;;28.40;67.70;;;;;;4999016;28;91340;-32
2022/08/11 09:28:17;;;;;;;2.63;2.42;;;28.60;61.50;;;;;;5000457;28;90319;-32
2022/08/11 09:30:47;;;;;;;4.47;2.10;;;28.80;65.50;;;;;;5000281;28;90196;-32
2022/08/11 09:33:15;;;;;;;1.88;1.77;;;28.90;63.10;;;;;;4999831;28;90228;-31
2022/08/11 09:35:42;;;;;;;3.00;2.10;;;29.10;60.40;;;;;;4999356;28;90717;-34
2022/08/11 09:40:57;;;;;;;3.03;2.08;;;29.10;58.30;;;;;;5000075;28;89687;-32
2022/08/11 09:46:08;;;;;;;4.78;2.63;;;29.30;57.30;;;;;;4999878;28;88378;-33
2022/08/11 09:48:45;;;;;;;5.95;2.30;;;29.40;57.60;;;;;;4999284;28;89719;-33
2022/08/11 09:51:12;;;;;;;2.28;2.08;;;29.50;53.50;;;;;;4999431;28;89723;-34
2022/08/11 09:53:40;;;;;;;1.80;1.70;;;29.50;53.60;;;;;;5000024;28;91018;-32
2022/08/11 09:58:55;;;;;;;4.75;3.30;;;29.70;54.30;;;;;;4986269;28;90197;-34
2022/08/11 10:01:25;;;;;;;2.22;1.83;;;29.70;52.10;;;;;;4998409;28;90457;-33
2022/08/11 10:04:01;;;;;;;16.63;2.90;;;29.60;52.30;;;;;;4998881;28;89378;-34
2022/08/11 10:09:20;;;;;;;3.35;3.05;;;29.60;51.50;;;;;;4986193;28;90310;-34
2022/08/11 10:11:47;;;;;;;6.50;2.55;;;29.60;52.40;;;;;;4999370;28;89838;-32
2022/08/11 10:17:06;;;;;;;4.93;2.50;;;29.80;52.10;;;;;;4999052;28;90431;-34
2022/08/11 10:19:34;;;;;;;2.10;1.90;;;29.90;52.00;;;;;;4999290;28;91154;-32
2022/08/11 10:27:31;;;;;;;1.90;1.80;;;30.00;52.60;;;;;;4998350;28;90223;-35
2022/08/11 10:35:30;;;;;;;3.13;2.08;;;29.90;50.40;;;;;;4998749;28;89914;-35
2022/08/11 10:37:57;;;;;;;3.45;1.70;;;29.80;50.40;;;;;;4998537;28;88745;-35
2022/08/11 10:40:23;;;;;;;2.37;1.63;;;29.90;51.20;;;;;;4998691;28;90237;-32
2022/08/11 10:43:09;;;;;;;4.20;2.27;;;29.80;49.70;;;;;;4998345;28;89727;-33
2022/08/11 10:48:35;;;;;;;1.50;1.40;;;29.80;50.30;;;;;;4987082;28;88583;-35
2022/08/11 10:51:14;;;;;;;3.58;2.50;;;29.90;51.20;;;;;;4998506;28;90823;-32
2022/08/11 10:59:23;;;;;;;5.32;2.17;;;30.20;48.40;;;;;;4998634;28;88660;-33
2022/08/11 11:01:51;;;;;;;3.35;2.13;;;30.10;48.20;;;;;;4998065;28;90819;-32
2022/08/11 11:04:21;;;;;;;2.33;1.88;;;29.90;49.90;;;;;;4997940;28;89638;-31
2022/08/11 11:06:50;;;;;;;12.52;2.67;;;29.80;49.90;;;;;;4998226;28;89130;-33
2022/08/11 11:09:22;;;;;;;2.20;1.75;;;29.80;49.70;;;;;;4998876;28;88451;-33
2022/08/11 11:17:55;;;;;;;6.30;2.63;;;29.70;48.80;;;;;;4986160;28;89524;-33
2022/08/11 11:20:42;;;;;;;1.73;1.58;;;29.70;49.60;;;;;;4998131;28;90065;-34
2022/08/11 11:23:24;;;;;;;4.35;2.25;;;29.80;48.20;;;;;;4997976;28;90747;-35
2022/08/11 11:26:28;;;;;;;2.50;2.30;;;29.80;48.90;;;;;;4997972;28;89924;-34
2022/08/11 11:29:13;;;;;;;2.22;1.83;;;29.80;48.40;;;;;;4997974;28;90212;-34
2022/08/11 11:31:50;;;;;;;1.92;1.80;;;29.80;47.40;;;;;;4999040;28;89324;-34
2022/08/11 11:35:02;;;;;;;2.50;2.30;;;29.90;48.40;;;;;;4997823;28;90124;-34
2022/08/11 11:37:36;;;;;;;4.53;1.60;;;29.80;48.50;;;;;;4960061;28;89982;-33
2022/08/11 11:40:11;;;;;;;3.20;1.63;;;29.70;48.70;;;;;;4998293;28;89102;-34
2022/08/11 11:42:40;;;;;;;3.17;1.95;;;29.60;47.90;;;;;;4999303;28;89755;-35
2022/08/11 11:45:08;;;;;;;1.58;1.48;;;29.50;48.90;;;;;;5001249;28;90138;-36
2022/08/11 11:47:35;;;;;;;2.38;1.83;;;29.50;49.00;;;;;;5001536;28;90274;-34
2022/08/11 11:50:01;;;;;;;3.97;1.88;;;29.50;48.90;;;;;;5002086;28;89320;-32
2022/08/11 11:52:27;;;;;;;3.22;2.03;;;29.60;48.50;;;;;;5000936;28;89304;-33
2022/08/11 11:54:56;;;;;;;1.88;1.77;;;29.60;48.70;;;;;;5001423;28;89988;-33
2022/08/11 12:02:59;;;;;;;2.10;1.90;;;29.80;47.40;;;;;;5000811;28;88693;-35
2022/08/11 12:05:26;;;;;;;2.03;1.88;;;29.80;47.50;;;;;;4999471;28;90225;-35
2022/08/11 12:08:14;;;;;;;;;;;29.70;48.60;;;;;;5001447;28;89704;-36
2022/08/11 12:10:48;;;;;;;2.55;2.00;;;29.80;48.70;;;;;;5002658;28;89343;-33
2022/08/11 12:16:02;;;;;;;2.95;2.35;;;29.90;48.00;;;;;;4987183;28;90257;-33
2022/08/11 12:18:35;;;;;;;5.32;2.20;;;29.80;48.40;;;;;;4999830;28;89748;-36
2022/08/11 12:21:03;;;;;;;6.10;2.22;;;29.90;47.50;;;;;;5035470;22;89139;-34
2022/08/11 12:29:00;;;;;;;3.15;2.22;;;29.90;47.50;;;;;;5000817;28;90048;-32
2022/08/11 12:31:31;;;;;;;5.47;2.17;;;29.90;48.30;;;;;;5000927;28;89708;-33
2022/08/11 12:34:07;;;;;;;1.75;1.65;;;30.00;46.60;;;;;;5000887;28;89113;-35
2022/08/11 12:36:37;;;;;;;2.80;2.35;;;29.90;47.30;;;;;;5000539;28;90170;-32
2022/08/11 12:39:06;;;;;;;2.85;1.80;;;29.80;47.10;;;;;;4999615;28;90936;-33
2022/08/11 12:47:07;;;;;;;5.43;1.98;;;29.90;47.20;;;;;;5001406;28;90443;-34
2022/08/11 12:52:28;;;;;;;2.20;2.00;;;29.90;47.30;;;;;;5000666;28;90504;-36
2022/08/11 12:55:08;;;;;;;1.98;1.88;;;29.90;46.60;;;;;;5000033;28;88005;-34
2022/08/11 13:05:57;;;;;;;4.47;2.60;;;29.80;45.90;;;;;;4987608;28;89637;-35
2022/08/11 13:08:26;;;;;;;2.95;2.65;;;29.90;46.20;;;;;;5000350;28;88839;-34
2022/08/11 13:13:41;;;;;;;7.30;1.90;;;29.80;47.50;;;;;;5001483;28;89061;-33
2022/08/11 13:16:08;;;;;;;2.50;2.30;;;29.70;46.00;;;;;;5000863;28;88437;-33
2022/08/11 13:18:34;;;;;;;3.78;2.00;;;29.60;46.50;;;;;;5000389;28;90003;-34
2022/08/11 13:21:01;;;;;;;1.85;1.70;;;29.60;47.70;;;;;;4999359;28;89745;-35
2022/08/11 13:23:28;;;;;;;1.80;1.67;;;29.70;47.70;;;;;;5000121;28;89737;-32
2022/08/11 13:25:55;;;;;;;1.83;1.73;;;29.80;47.20;;;;;;5000219;28;89249;-33
2022/08/11 13:28:24;;;;;;;8.20;2.10;;;29.90;47.60;;;;;;4999760;28;90336;-33
2022/08/11 13:33:51;;;;;;;9.30;2.05;;;30.00;46.90;;;;;;5000260;28;90610;-34
2022/08/11 13:36:20;;;;;;;2.05;1.80;;;29.90;45.30;;;;;;4999698;28;90515;-34
2022/08/11 13:38:47;;;;;;;1.83;1.73;;;29.80;47.20;;;;;;4999867;28;90395;-32
2022/08/11 13:43:59;;;;;;;2.38;1.90;;;29.70;48.70;;;;;;5000189;28;90423;-32
2022/08/11 13:46:27;;;;;;;3.40;2.22;;;29.80;48.90;;;;;;5000128;28;88493;-33
2022/08/11 13:48:55;;;;;;;2.22;1.98;;;29.80;48.60;;;;;;4999489;28;90180;-34
2022/08/11 13:51:29;;;;;;;2.30;2.10;;;29.80;48.70;;;;;;4999532;28;90231;-34
2022/08/11 13:53:57;;;;;;;2.95;2.05;;;29.80;48.40;;;;;;5000067;28;90395;-34
2022/08/11 13:56:23;;;;;;;1.75;1.65;;;29.90;49.00;;;;;;4999117;28;89001;-35
2022/08/11 13:58:51;;;;;;;3.20;2.20;;;29.90;48.60;;;;;;5000100;28;90730;-34
2022/08/11 14:01:19;;;;;;;2.80;1.95;;;29.90;48.50;;;;;;4999598;28;89738;-33
2022/08/11 14:03:48;;;;;;;1.88;1.77;;;29.90;48.10;;;;;;4999697;28;89312;-33
2022/08/11 14:06:18;;;;;;;1.88;1.77;;;29.90;48.80;;;;;;4998137;28;89251;-33
2022/08/11 14:08:44;;;;;;;2.63;2.38;;;29.90;48.50;;;;;;4998548;28;90444;-34
2022/08/11 14:13:57;;;;;;;2.47;1.90;;;30.10;49.10;;;;;;4999632;28;89311;-33
2022/08/11 14:16:30;;;;;;;2.70;1.83;;;30.10;47.60;;;;;;4999105;28;87550;-34
2022/08/11 14:19:07;;;;;;;2.45;2.00;;;30.00;49.10;;;;;;4997626;28;90238;-33
2022/08/11 14:24:22;;;;;;;3.25;2.13;;;30.00;48.50;;;;;;4999231;28;90290;-37
2022/08/11 14:26:50;;;;;;;2.08;1.90;;;29.90;47.80;;;;;;4999300;28;88341;-33
2022/08/11 14:29:20;;;;;;;2.10;1.90;;;29.80;48.30;;;;;;4998601;28;90345;-33
2022/08/11 14:31:53;;;;;;;5.75;1.98;;;29.80;48.70;;;;;;4999446;28;90038;-33
2022/08/11 14:34:21;;;;;;;2.38;2.17;;;29.90;48.40;;;;;;4998557;28;89511;-32
2022/08/11 14:36:51;;;;;;;2.00;1.90;;;29.90;47.30;;;;;;4999585;28;88810;-32
2022/08/11 14:39:21;;;;;;;2.42;2.10;;;29.90;47.50;;;;;;4999505;28;90408;-32
2022/08/11 14:47:28;;;;;;;2.35;1.40;;;29.90;48.10;;;;;;4998837;28;90373;-35
2022/08/11 14:49:56;;;;;;;3.67;1.50;;;29.90;47.40;;;;;;4999588;28;90689;-35
2022/08/11 14:52:23;;;;;;;2.45;1.50;;;29.80;47.90;;;;;;4998944;28;89796;-33
2022/08/11 14:57:39;;;;;;;2.80;1.50;;;29.90;46.90;;;;;;4991810;28;89245;-33
2022/08/11 15:00:07;;;;;;;2.45;1.40;;;29.80;47.60;;;;;;4986180;28;90251;-35
2022/08/11 15:05:23;;;;;;;2.78;2.30;;;29.70;47.70;;;;;;4995547;28;89544;-36
2022/08/11 15:07:50;;;;;;;3.38;1.83;;;29.70;46.80;;;;;;4996274;28;88271;-32
2022/08/11 15:10:17;;;;;;;3.70;1.97;;;29.70;47.70;;;;;;4993316;28;91173;-35
2022/08/11 15:12:43;;;;;;;3.35;1.67;;;29.70;47.60;;;;;;4995698;28;90574;-32
2022/08/11 15:17:57;;;;;;;1.50;1.38;;;29.80;47.20;;;;;;4998723;28;88989;-33
2022/08/11 15:26:03;;;;;;;1.65;1.55;;;29.60;47.50;;;;;;4999997;28;90669;-33
2022/08/11 15:45:48;;;;;;;2.00;1.90;;;29.50;48.60;;;;;;4998701;28;89561;-33
2022/08/11 15:48:25;;;;;;;1.90;1.80;;;29.40;48.80;;;;;;4998214;28;89317;-32
2022/08/11 15:50:53;;;;;;;2.13;1.55;;;29.30;49.50;;;;;;4988576;28;88106;-36
2022/08/11 15:53:39;;;;;;;2.08;1.45;;;29.30;49.10;;;;;;4998616;28;91638;-32
2022/08/11 15:56:05;;;;;;;1.67;1.50;;;29.30;49.40;;;;;;4989354;28;90537;-33
2022/08/11 16:04:13;;;;;;;;;;;29.20;49.80;;;;;;4999700;28;90744;-33
2022/08/11 16:06:48;;;;;;;5.28;1.52;;;29.10;50.60;;;;;;5005096;28;91030;-33
2022/08/11 16:09:16;;;;;;;2.17;1.70;;;29.10;50.40;;;;;;5004431;28;90705;-34
2022/08/11 16:11:44;;;;;;;5.38;2.42;;;29.10;50.60;;;;;;5003865;28;88805;-35
2022/08/11 16:16:58;;;;;;;1.87;1.77;;;28.90;50.00;;;;;;5001290;28;89249;-34
2022/08/11 16:19:27;;;;;;;1.50;1.40;;;28.80;50.70;;;;;;5001383;28;89833;-35
2022/08/11 16:21:54;;;;;;;2.80;1.98;;;28.80;51.60;;;;;;5002816;28;88513;-33
2022/08/11 16:24:23;;;;;;;2.05;1.95;;;28.80;50.70;;;;;;5001067;28;90502;-33
2022/08/11 16:26:50;;;;;;;4.68;2.20;;;28.80;50.70;;;;;;5000971;28;89869;-33
2022/08/11 16:29:17;;;;;;;;;;;28.70;50.60;;;;;;4999531;28;89566;-32
2022/08/11 16:32:15;;;;;;;2.20;1.88;;;28.70;50.90;;;;;;5001493;28;89247;-36
2022/08/11 16:40:02;;;;;;;3.83;2.55;;;28.70;51.30;;;;;;4997706;28;91137;-34
2022/08/11 16:47:57;;;;;;;2.20;2.03;;;28.50;51.10;;;;;;4998221;28;89112;-32
2022/08/11 16:50:23;;;;;;;3.53;2.38;;;28.40;51.40;;;;;;4997756;28;89614;-34
2022/08/11 16:52:51;;;;;;;2.42;2.22;;;28.30;51.00;;;;;;4998576;28;88371;-32
2022/08/11 16:55:16;;;;;;;;;;;28.30;51.30;;;;;;4997805;28;91298;-34
2022/08/11 17:00:27;;;;;;;2.42;2.00;;;28.10;51.20;;;;;;4997460;28;90747;-32
2022/08/11 17:14:19;;;;;;;2.88;2.20;;;27.60;52.10;;;;;;4988049;28;88529;-36
2022/08/11 17:16:47;;;;;;;2.55;2.35;;;27.50;52.20;;;;;;5000502;28;90380;-36
2022/08/11 17:19:22;;;;;;;4.53;2.20;;;27.40;52.40;;;;;;5003322;28;89583;-33
2022/08/11 17:24:45;;;;;;;2.45;2.25;;;27.30;53.00;;;;;;4991365;28;89101;-34
2022/08/11 17:27:17;;;;;;;3.90;2.05;;;27.10;53.70;;;;;;5005720;28;91571;-32
2022/08/11 17:29:46;;;;;;;2.88;1.90;;;27.00;54.50;;;;;;5003187;28;90283;-34
2022/08/11 17:37:50;;;;;;;2.50;2.00;;;26.70;55.80;;;;;;5000008;28;90178;-33
2022/08/11 17:40:24;;;;;;;2.90;2.00;;;26.70;55.60;;;;;;4999329;28;89735;-34
2022/08/11 17:48:28;;;;;;;2.60;2.25;;;26.50;56.00;;;;;;4988745;28;90604;-34
2022/08/11 17:51:00;;;;;;;2.63;2.42;;;26.50;55.90;;;;;;4999099;28;90717;-34
2022/08/11 18:01:43;;;;;;;2.33;2.13;;;26.20;59.80;;;;;;4996452;28;90110;-34
2022/08/11 18:04:11;;;;;;;2.50;2.25;;;26.20;60.70;;;;;;4995859;28;89772;-34
2022/08/11 18:06:39;;;;;;;3.45;2.75;;;26.10;61.80;;;;;;4996957;28;89145;-32
